sensor_id;sensor_type;location;lat;lon;timestamp;P1;durP1;ratioP1;P2;durP2;ratioP2
14276;SDS011;7222;57.346;12.150;2023-07-31T00:02:04;5.10;;;3.00;;
14276;SDS011;7222;57.346;12.150;2023-07-31T00:04:31;6.80;;;2.83;;
14276;SDS011;7222;57.346;12.150;2023-07-31T00:06:59;6.10;;;2.73;;
14276;SDS011;7222;57.346;12.150;2023-07-31T00:09:29;5.87;;;2.77;;
14276;SDS011;7222;57.346;12.150;2023-07-31T00:11:56;5.30;;;2.60;;
14276;SDS011;7222;57.346;12.150;2023-07-31T00:14:23;8.37;;;2.90;;
14276;SDS011;7222;57.346;12.150;2023-07-31T00:16:50;7.57;;;3.17;;
14276;SDS011;7222;57.346;12.150;2023-07-31T00:19:18;4.40;;;3.07;;
14276;SDS011;7222;57.346;12.150;2023-07-31T00:21:45;6.17;;;2.80;;
14276;SDS011;7222;57.346;12.150;2023-07-31T00:24:13;7.07;;;3.50;;
14276;SDS011;7222;57.346;12.150;2023-07-31T00:26:40;7.47;;;3.10;;
14276;SDS011;7222;57.346;12.150;2023-07-31T00:29:07;5.00;;;2.97;;
14276;SDS011;7222;57.346;12.150;2023-07-31T00:31:34;4.37;;;2.63;;
14276;SDS011;7222;57.346;12.150;2023-07-31T00:34:01;8.63;;;3.13;;
14276;SDS011;7222;57.346;12.150;2023-07-31T00:36:28;6.20;;;2.77;;
14276;SDS011;7222;57.346;12.150;2023-07-31T00:38:56;9.67;;;3.07;;
14276;SDS011;7222;57.346;12.150;2023-07-31T00:41:24;9.23;;;3.10;;
14276;SDS011;7222;57.346;12.150;2023-07-31T00:43:51;4.57;;;2.77;;
14276;SDS011;7222;57.346;12.150;2023-07-31T00:46:18;5.93;;;2.70;;
14276;SDS011;7222;57.346;12.150;2023-07-31T00:48:47;8.00;;;2.50;;
14276;SDS011;7222;57.346;12.150;2023-07-31T00:51:14;6.07;;;3.10;;
14276;SDS011;7222;57.346;12.150;2023-07-31T00:53:42;5.20;;;2.40;;
14276;SDS011;7222;57.346;12.150;2023-07-31T00:56:09;4.27;;;2.60;;
14276;SDS011;7222;57.346;12.150;2023-07-31T00:58:40;7.07;;;2.70;;
14276;SDS011;7222;57.346;12.150;2023-07-31T01:01:07;7.83;;;2.60;;
14276;SDS011;7222;57.346;12.150;2023-07-31T01:03:34;8.50;;;3.20;;
14276;SDS011;7222;57.346;12.150;2023-07-31T01:06:04;9.43;;;3.13;;
14276;SDS011;7222;57.346;12.150;2023-07-31T01:08:41;6.87;;;3.10;;
14276;SDS011;7222;57.346;12.150;2023-07-31T01:11:14;10.30;;;3.20;;
14276;SDS011;7222;57.346;12.150;2023-07-31T01:13:55;9.27;;;3.40;;
14276;SDS011;7222;57.346;12.150;2023-07-31T01:16:22;7.50;;;3.73;;
14276;SDS011;7222;57.346;12.150;2023-07-31T01:18:49;8.03;;;2.93;;
14276;SDS011;7222;57.346;12.150;2023-07-31T01:21:21;10.40;;;3.30;;
14276;SDS011;7222;57.346;12.150;2023-07-31T01:24:08;5.03;;;3.00;;
14276;SDS011;7222;57.346;12.150;2023-07-31T01:26:52;6.77;;;3.20;;
14276;SDS011;7222;57.346;12.150;2023-07-31T01:29:24;6.50;;;2.93;;
14276;SDS011;7222;57.346;12.150;2023-07-31T01:31:57;6.33;;;2.80;;
14276;SDS011;7222;57.346;12.150;2023-07-31T01:34:29;7.13;;;3.60;;
14276;SDS011;7222;57.346;12.150;2023-07-31T01:36:56;10.73;;;3.63;;
14276;SDS011;7222;57.346;12.150;2023-07-31T01:39:23;5.60;;;3.30;;
14276;SDS011;7222;57.346;12.150;2023-07-31T01:41:52;8.23;;;3.67;;
14276;SDS011;7222;57.346;12.150;2023-07-31T01:44:19;8.17;;;3.50;;
14276;SDS011;7222;57.346;12.150;2023-07-31T01:46:46;7.27;;;3.53;;
14276;SDS011;7222;57.346;12.150;2023-07-31T01:49:13;6.03;;;3.40;;
14276;SDS011;7222;57.346;12.150;2023-07-31T01:51:40;8.43;;;3.30;;
14276;SDS011;7222;57.346;12.150;2023-07-31T01:54:07;6.70;;;3.30;;
14276;SDS011;7222;57.346;12.150;2023-07-31T01:56:34;8.40;;;3.63;;
14276;SDS011;7222;57.346;12.150;2023-07-31T01:59:03;6.77;;;3.20;;
14276;SDS011;7222;57.346;12.150;2023-07-31T02:01:30;9.83;;;3.90;;
14276;SDS011;7222;57.346;12.150;2023-07-31T02:03:57;12.40;;;4.10;;
14276;SDS011;7222;57.346;12.150;2023-07-31T02:06:24;7.50;;;3.67;;
14276;SDS011;7222;57.346;12.150;2023-07-31T02:08:51;10.90;;;3.60;;
14276;SDS011;7222;57.346;12.150;2023-07-31T02:11:18;10.90;;;3.83;;
14276;SDS011;7222;57.346;12.150;2023-07-31T02:13:45;9.40;;;4.00;;
14276;SDS011;7222;57.346;12.150;2023-07-31T02:16:13;11.27;;;3.80;;
14276;SDS011;7222;57.346;12.150;2023-07-31T02:18:40;9.77;;;3.53;;
14276;SDS011;7222;57.346;12.150;2023-07-31T02:21:07;7.03;;;3.53;;
14276;SDS011;7222;57.346;12.150;2023-07-31T02:23:35;4.53;;;3.40;;
14276;SDS011;7222;57.346;12.150;2023-07-31T02:26:02;10.23;;;3.13;;
14276;SDS011;7222;57.346;12.150;2023-07-31T02:28:29;11.27;;;3.40;;
14276;SDS011;7222;57.346;12.150;2023-07-31T02:30:56;9.03;;;3.73;;
14276;SDS011;7222;57.346;12.150;2023-07-31T02:33:24;8.97;;;3.37;;
14276;SDS011;7222;57.346;12.150;2023-07-31T02:35:51;10.57;;;3.20;;
14276;SDS011;7222;57.346;12.150;2023-07-31T02:38:18;7.37;;;2.97;;
14276;SDS011;7222;57.346;12.150;2023-07-31T02:40:45;9.70;;;3.80;;
14276;SDS011;7222;57.346;12.150;2023-07-31T02:43:13;4.33;;;2.70;;
14276;SDS011;7222;57.346;12.150;2023-07-31T02:45:40;7.37;;;3.30;;
14276;SDS011;7222;57.346;12.150;2023-07-31T02:48:07;8.17;;;3.30;;
14276;SDS011;7222;57.346;12.150;2023-07-31T02:50:35;9.30;;;3.10;;
14276;SDS011;7222;57.346;12.150;2023-07-31T02:53:02;5.33;;;2.70;;
14276;SDS011;7222;57.346;12.150;2023-07-31T02:55:29;6.43;;;3.17;;
14276;SDS011;7222;57.346;12.150;2023-07-31T02:57:56;7.77;;;3.30;;
14276;SDS011;7222;57.346;12.150;2023-07-31T03:00:24;8.17;;;3.30;;
14276;SDS011;7222;57.346;12.150;2023-07-31T03:02:51;5.67;;;2.83;;
14276;SDS011;7222;57.346;12.150;2023-07-31T03:05:17;9.60;;;3.47;;
14276;SDS011;7222;57.346;12.150;2023-07-31T03:07:46;8.83;;;3.07;;
14276;SDS011;7222;57.346;12.150;2023-07-31T03:10:13;10.13;;;3.10;;
14276;SDS011;7222;57.346;12.150;2023-07-31T03:12:41;5.77;;;2.67;;
14276;SDS011;7222;57.346;12.150;2023-07-31T03:15:08;8.07;;;3.03;;
14276;SDS011;7222;57.346;12.150;2023-07-31T03:17:35;6.70;;;3.03;;
14276;SDS011;7222;57.346;12.150;2023-07-31T03:20:03;9.60;;;3.00;;
14276;SDS011;7222;57.346;12.150;2023-07-31T03:22:30;10.33;;;3.23;;
14276;SDS011;7222;57.346;12.150;2023-07-31T03:24:59;9.53;;;3.40;;
14276;SDS011;7222;57.346;12.150;2023-07-31T03:27:26;6.47;;;2.47;;
14276;SDS011;7222;57.346;12.150;2023-07-31T03:29:53;4.37;;;2.50;;
14276;SDS011;7222;57.346;12.150;2023-07-31T03:32:20;5.67;;;3.30;;
14276;SDS011;7222;57.346;12.150;2023-07-31T03:34:47;9.63;;;2.93;;
14276;SDS011;7222;57.346;12.150;2023-07-31T03:37:14;6.43;;;2.80;;
14276;SDS011;7222;57.346;12.150;2023-07-31T03:39:41;6.73;;;2.60;;
14276;SDS011;7222;57.346;12.150;2023-07-31T03:42:10;7.93;;;2.90;;
14276;SDS011;7222;57.346;12.150;2023-07-31T03:44:36;9.93;;;3.10;;
14276;SDS011;7222;57.346;12.150;2023-07-31T03:47:04;5.83;;;2.80;;
14276;SDS011;7222;57.346;12.150;2023-07-31T03:49:31;7.13;;;2.83;;
14276;SDS011;7222;57.346;12.150;2023-07-31T03:51:58;4.60;;;2.70;;
14276;SDS011;7222;57.346;12.150;2023-07-31T03:54:25;5.83;;;2.70;;
14276;SDS011;7222;57.346;12.150;2023-07-31T03:56:52;5.70;;;2.50;;
14276;SDS011;7222;57.346;12.150;2023-07-31T03:59:21;7.07;;;3.30;;
14276;SDS011;7222;57.346;12.150;2023-07-31T04:01:48;8.13;;;3.00;;
14276;SDS011;7222;57.346;12.150;2023-07-31T04:04:15;6.57;;;3.10;;
14276;SDS011;7222;57.346;12.150;2023-07-31T04:06:41;3.73;;;2.50;;
14276;SDS011;7222;57.346;12.150;2023-07-31T04:09:08;5.87;;;2.30;;
14276;SDS011;7222;57.346;12.150;2023-07-31T04:11:35;5.33;;;2.60;;
14276;SDS011;7222;57.346;12.150;2023-07-31T04:14:04;7.17;;;2.67;;
14276;SDS011;7222;57.346;12.150;2023-07-31T04:16:32;5.00;;;2.60;;
14276;SDS011;7222;57.346;12.150;2023-07-31T04:18:59;4.13;;;2.57;;
14276;SDS011;7222;57.346;12.150;2023-07-31T04:21:27;6.83;;;3.00;;
14276;SDS011;7222;57.346;12.150;2023-07-31T04:23:54;5.10;;;2.67;;
14276;SDS011;7222;57.346;12.150;2023-07-31T04:26:23;8.87;;;2.73;;
14276;SDS011;7222;57.346;12.150;2023-07-31T04:28:50;8.90;;;3.00;;
14276;SDS011;7222;57.346;12.150;2023-07-31T04:31:17;6.10;;;2.80;;
14276;SDS011;7222;57.346;12.150;2023-07-31T04:33:45;5.80;;;3.03;;
14276;SDS011;7222;57.346;12.150;2023-07-31T04:36:12;7.17;;;2.63;;
14276;SDS011;7222;57.346;12.150;2023-07-31T04:38:40;8.40;;;3.17;;
14276;SDS011;7222;57.346;12.150;2023-07-31T04:41:07;5.47;;;2.90;;
14276;SDS011;7222;57.346;12.150;2023-07-31T04:43:34;8.20;;;3.33;;
14276;SDS011;7222;57.346;12.150;2023-07-31T04:46:04;8.70;;;2.93;;
14276;SDS011;7222;57.346;12.150;2023-07-31T04:48:31;6.27;;;3.00;;
14276;SDS011;7222;57.346;12.150;2023-07-31T04:51:00;7.27;;;3.40;;
14276;SDS011;7222;57.346;12.150;2023-07-31T04:53:27;7.30;;;3.00;;
14276;SDS011;7222;57.346;12.150;2023-07-31T04:55:54;6.77;;;2.93;;
14276;SDS011;7222;57.346;12.150;2023-07-31T04:58:21;7.33;;;3.60;;
14276;SDS011;7222;57.346;12.150;2023-07-31T05:00:48;6.40;;;3.20;;
14276;SDS011;7222;57.346;12.150;2023-07-31T05:03:15;8.37;;;3.43;;
14276;SDS011;7222;57.346;12.150;2023-07-31T05:05:42;9.57;;;3.97;;
14276;SDS011;7222;57.346;12.150;2023-07-31T05:08:11;6.53;;;3.80;;
14276;SDS011;7222;57.346;12.150;2023-07-31T05:10:38;7.37;;;3.53;;
14276;SDS011;7222;57.346;12.150;2023-07-31T05:13:05;4.20;;;3.33;;
14276;SDS011;7222;57.346;12.150;2023-07-31T05:15:32;5.00;;;3.97;;
14276;SDS011;7222;57.346;12.150;2023-07-31T05:17:59;6.60;;;3.40;;
14276;SDS011;7222;57.346;12.150;2023-07-31T05:20:26;7.63;;;3.23;;
14276;SDS011;7222;57.346;12.150;2023-07-31T05:22:53;8.57;;;3.30;;
14276;SDS011;7222;57.346;12.150;2023-07-31T05:25:22;9.67;;;3.40;;
14276;SDS011;7222;57.346;12.150;2023-07-31T05:27:49;6.67;;;2.60;;
14276;SDS011;7222;57.346;12.150;2023-07-31T05:30:16;7.63;;;2.73;;
14276;SDS011;7222;57.346;12.150;2023-07-31T05:32:43;10.00;;;3.27;;
14276;SDS011;7222;57.346;12.150;2023-07-31T05:35:11;5.10;;;3.00;;
14276;SDS011;7222;57.346;12.150;2023-07-31T05:37:38;8.53;;;3.10;;
14276;SDS011;7222;57.346;12.150;2023-07-31T05:40:06;7.23;;;2.67;;
14276;SDS011;7222;57.346;12.150;2023-07-31T05:42:35;5.23;;;2.57;;
14276;SDS011;7222;57.346;12.150;2023-07-31T05:45:04;5.20;;;2.73;;
14276;SDS011;7222;57.346;12.150;2023-07-31T05:47:32;7.63;;;3.13;;
14276;SDS011;7222;57.346;12.150;2023-07-31T05:49:59;7.50;;;3.20;;
14276;SDS011;7222;57.346;12.150;2023-07-31T05:52:26;7.70;;;3.03;;
14276;SDS011;7222;57.346;12.150;2023-07-31T05:54:54;6.57;;;2.83;;
14276;SDS011;7222;57.346;12.150;2023-07-31T05:57:21;9.33;;;3.10;;
14276;SDS011;7222;57.346;12.150;2023-07-31T05:59:49;5.03;;;3.17;;
14276;SDS011;7222;57.346;12.150;2023-07-31T06:02:18;5.07;;;2.43;;
14276;SDS011;7222;57.346;12.150;2023-07-31T06:04:45;6.73;;;2.53;;
14276;SDS011;7222;57.346;12.150;2023-07-31T06:07:12;4.97;;;2.80;;
14276;SDS011;7222;57.346;12.150;2023-07-31T06:09:40;7.43;;;3.13;;
14276;SDS011;7222;57.346;12.150;2023-07-31T06:12:07;4.60;;;2.77;;
14276;SDS011;7222;57.346;12.150;2023-07-31T06:14:35;5.87;;;2.40;;
14276;SDS011;7222;57.346;12.150;2023-07-31T06:17:04;6.23;;;2.97;;
14276;SDS011;7222;57.346;12.150;2023-07-31T06:19:31;10.63;;;3.03;;
14276;SDS011;7222;57.346;12.150;2023-07-31T06:21:58;5.93;;;2.20;;
14276;SDS011;7222;57.346;12.150;2023-07-31T06:24:25;4.10;;;2.20;;
14276;SDS011;7222;57.346;12.150;2023-07-31T06:26:52;6.37;;;2.67;;
14276;SDS011;7222;57.346;12.150;2023-07-31T06:29:19;4.23;;;2.13;;
14276;SDS011;7222;57.346;12.150;2023-07-31T06:31:46;6.10;;;2.63;;
14276;SDS011;7222;57.346;12.150;2023-07-31T06:37:03;2.87;;;1.87;;
14276;SDS011;7222;57.346;12.150;2023-07-31T06:39:30;4.47;;;2.63;;
14276;SDS011;7222;57.346;12.150;2023-07-31T06:42:18;5.13;;;2.70;;
14276;SDS011;7222;57.346;12.150;2023-07-31T06:44:46;5.80;;;2.60;;
14276;SDS011;7222;57.346;12.150;2023-07-31T06:47:13;6.67;;;2.47;;
14276;SDS011;7222;57.346;12.150;2023-07-31T06:49:42;4.20;;;2.40;;
14276;SDS011;7222;57.346;12.150;2023-07-31T06:52:08;7.33;;;3.37;;
14276;SDS011;7222;57.346;12.150;2023-07-31T06:54:36;4.07;;;2.43;;
14276;SDS011;7222;57.346;12.150;2023-07-31T06:57:03;4.23;;;1.90;;
14276;SDS011;7222;57.346;12.150;2023-07-31T06:59:30;4.93;;;1.90;;
14276;SDS011;7222;57.346;12.150;2023-07-31T07:01:58;4.03;;;1.83;;
14276;SDS011;7222;57.346;12.150;2023-07-31T07:04:25;3.33;;;1.87;;
14276;SDS011;7222;57.346;12.150;2023-07-31T07:06:54;2.37;;;1.50;;
14276;SDS011;7222;57.346;12.150;2023-07-31T07:09:21;3.03;;;1.50;;
14276;SDS011;7222;57.346;12.150;2023-07-31T07:11:48;4.00;;;1.57;;
14276;SDS011;7222;57.346;12.150;2023-07-31T07:14:15;2.10;;;1.37;;
14276;SDS011;7222;57.346;12.150;2023-07-31T07:16:42;2.33;;;1.40;;
14276;SDS011;7222;57.346;12.150;2023-07-31T07:19:09;3.43;;;1.73;;
14276;SDS011;7222;57.346;12.150;2023-07-31T07:21:36;2.93;;;1.60;;
14276;SDS011;7222;57.346;12.150;2023-07-31T07:24:05;5.23;;;1.80;;
14276;SDS011;7222;57.346;12.150;2023-07-31T07:26:32;3.37;;;2.07;;
14276;SDS011;7222;57.346;12.150;2023-07-31T07:28:59;2.90;;;1.40;;
14276;SDS011;7222;57.346;12.150;2023-07-31T07:31:27;3.70;;;1.87;;
14276;SDS011;7222;57.346;12.150;2023-07-31T07:33:54;4.73;;;1.67;;
14276;SDS011;7222;57.346;12.150;2023-07-31T07:36:22;4.20;;;1.57;;
14276;SDS011;7222;57.346;12.150;2023-07-31T07:38:49;4.00;;;1.77;;
14276;SDS011;7222;57.346;12.150;2023-07-31T07:41:18;2.77;;;1.63;;
14276;SDS011;7222;57.346;12.150;2023-07-31T07:43:45;2.43;;;1.50;;
14276;SDS011;7222;57.346;12.150;2023-07-31T07:46:12;3.50;;;1.50;;
14276;SDS011;7222;57.346;12.150;2023-07-31T07:48:39;6.30;;;1.97;;
14276;SDS011;7222;57.346;12.150;2023-07-31T07:51:06;2.73;;;1.60;;
14276;SDS011;7222;57.346;12.150;2023-07-31T07:53:33;4.13;;;1.57;;
14276;SDS011;7222;57.346;12.150;2023-07-31T07:56:01;2.53;;;1.50;;
14276;SDS011;7222;57.346;12.150;2023-07-31T07:58:29;3.20;;;1.60;;
14276;SDS011;7222;57.346;12.150;2023-07-31T08:00:56;2.57;;;1.40;;
14276;SDS011;7222;57.346;12.150;2023-07-31T08:03:23;4.13;;;1.73;;
14276;SDS011;7222;57.346;12.150;2023-07-31T08:05:50;2.67;;;1.43;;
14276;SDS011;7222;57.346;12.150;2023-07-31T08:08:17;3.03;;;1.40;;
14276;SDS011;7222;57.346;12.150;2023-07-31T08:10:45;2.93;;;1.50;;
14276;SDS011;7222;57.346;12.150;2023-07-31T08:13:12;4.20;;;1.67;;
14276;SDS011;7222;57.346;12.150;2023-07-31T08:15:42;3.50;;;1.67;;
14276;SDS011;7222;57.346;12.150;2023-07-31T08:18:09;4.10;;;1.87;;
14276;SDS011;7222;57.346;12.150;2023-07-31T08:20:37;2.47;;;1.20;;
14276;SDS011;7222;57.346;12.150;2023-07-31T08:23:04;3.57;;;1.70;;
14276;SDS011;7222;57.346;12.150;2023-07-31T08:25:33;2.07;;;1.37;;
14276;SDS011;7222;57.346;12.150;2023-07-31T08:28:01;4.03;;;1.87;;
14276;SDS011;7222;57.346;12.150;2023-07-31T08:30:28;3.27;;;1.77;;
14276;SDS011;7222;57.346;12.150;2023-07-31T08:32:56;3.77;;;1.60;;
14276;SDS011;7222;57.346;12.150;2023-07-31T08:35:23;4.17;;;1.70;;
14276;SDS011;7222;57.346;12.150;2023-07-31T08:37:51;3.20;;;1.90;;
14276;SDS011;7222;57.346;12.150;2023-07-31T08:40:18;2.60;;;1.47;;
14276;SDS011;7222;57.346;12.150;2023-07-31T08:42:47;2.30;;;1.40;;
14276;SDS011;7222;57.346;12.150;2023-07-31T08:45:16;4.63;;;1.47;;
14276;SDS011;7222;57.346;12.150;2023-07-31T08:47:45;3.73;;;1.80;;
14276;SDS011;7222;57.346;12.150;2023-07-31T08:50:16;4.13;;;1.60;;
14276;SDS011;7222;57.346;12.150;2023-07-31T08:52:44;2.87;;;1.60;;
14276;SDS011;7222;57.346;12.150;2023-07-31T08:55:12;3.53;;;1.43;;
14276;SDS011;7222;57.346;12.150;2023-07-31T08:57:39;2.87;;;1.70;;
14276;SDS011;7222;57.346;12.150;2023-07-31T09:00:08;4.53;;;1.70;;
14276;SDS011;7222;57.346;12.150;2023-07-31T09:02:37;2.30;;;1.53;;
14276;SDS011;7222;57.346;12.150;2023-07-31T09:05:10;3.13;;;1.40;;
14276;SDS011;7222;57.346;12.150;2023-07-31T09:07:39;2.90;;;1.60;;
14276;SDS011;7222;57.346;12.150;2023-07-31T09:10:11;2.47;;;1.43;;
14276;SDS011;7222;57.346;12.150;2023-07-31T09:12:38;2.07;;;1.20;;
14276;SDS011;7222;57.346;12.150;2023-07-31T09:15:06;3.77;;;1.40;;
14276;SDS011;7222;57.346;12.150;2023-07-31T09:17:34;2.80;;;1.40;;
14276;SDS011;7222;57.346;12.150;2023-07-31T09:20:14;4.93;;;1.43;;
14276;SDS011;7222;57.346;12.150;2023-07-31T09:22:44;3.70;;;1.43;;
14276;SDS011;7222;57.346;12.150;2023-07-31T09:25:16;1.73;;;1.10;;
14276;SDS011;7222;57.346;12.150;2023-07-31T09:27:47;2.10;;;1.40;;
14276;SDS011;7222;57.346;12.150;2023-07-31T09:30:15;2.70;;;1.60;;
14276;SDS011;7222;57.346;12.150;2023-07-31T09:32:43;3.70;;;1.60;;
14276;SDS011;7222;57.346;12.150;2023-07-31T09:35:16;4.10;;;1.73;;
14276;SDS011;7222;57.346;12.150;2023-07-31T09:37:51;5.13;;;1.70;;
14276;SDS011;7222;57.346;12.150;2023-07-31T09:40:25;4.87;;;1.33;;
14276;SDS011;7222;57.346;12.150;2023-07-31T09:42:53;2.87;;;1.30;;
14276;SDS011;7222;57.346;12.150;2023-07-31T09:45:22;2.93;;;1.20;;
14276;SDS011;7222;57.346;12.150;2023-07-31T09:47:49;1.80;;;1.33;;
14276;SDS011;7222;57.346;12.150;2023-07-31T09:50:16;3.53;;;1.23;;
14276;SDS011;7222;57.346;12.150;2023-07-31T09:52:44;2.53;;;1.20;;
14276;SDS011;7222;57.346;12.150;2023-07-31T09:55:13;1.60;;;1.10;;
14276;SDS011;7222;57.346;12.150;2023-07-31T09:57:40;2.67;;;1.20;;
14276;SDS011;7222;57.346;12.150;2023-07-31T10:00:09;4.30;;;1.07;;
14276;SDS011;7222;57.346;12.150;2023-07-31T10:02:37;3.80;;;1.50;;
14276;SDS011;7222;57.346;12.150;2023-07-31T10:05:06;3.57;;;1.33;;
14276;SDS011;7222;57.346;12.150;2023-07-31T10:07:36;1.97;;;1.10;;
14276;SDS011;7222;57.346;12.150;2023-07-31T10:10:06;2.50;;;1.23;;
14276;SDS011;7222;57.346;12.150;2023-07-31T10:12:36;2.30;;;1.20;;
14276;SDS011;7222;57.346;12.150;2023-07-31T10:15:04;1.30;;;1.00;;
14276;SDS011;7222;57.346;12.150;2023-07-31T10:17:33;3.10;;;1.20;;
14276;SDS011;7222;57.346;12.150;2023-07-31T10:20:05;2.33;;;0.97;;
14276;SDS011;7222;57.346;12.150;2023-07-31T10:22:34;3.43;;;1.10;;
14276;SDS011;7222;57.346;12.150;2023-07-31T10:25:01;2.20;;;1.03;;
14276;SDS011;7222;57.346;12.150;2023-07-31T10:27:30;3.07;;;1.10;;
14276;SDS011;7222;57.346;12.150;2023-07-31T10:30:05;2.70;;;1.30;;
14276;SDS011;7222;57.346;12.150;2023-07-31T10:32:34;1.47;;;1.00;;
14276;SDS011;7222;57.346;12.150;2023-07-31T10:35:02;2.23;;;1.20;;
14276;SDS011;7222;57.346;12.150;2023-07-31T10:37:35;2.90;;;0.93;;
14276;SDS011;7222;57.346;12.150;2023-07-31T10:40:04;2.37;;;1.13;;
14276;SDS011;7222;57.346;12.150;2023-07-31T10:42:33;4.30;;;1.10;;
14276;SDS011;7222;57.346;12.150;2023-07-31T10:45:04;3.20;;;1.13;;
14276;SDS011;7222;57.346;12.150;2023-07-31T10:47:36;3.20;;;1.40;;
14276;SDS011;7222;57.346;12.150;2023-07-31T10:50:12;2.67;;;1.10;;
14276;SDS011;7222;57.346;12.150;2023-07-31T10:52:43;5.50;;;1.87;;
14276;SDS011;7222;57.346;12.150;2023-07-31T10:55:14;4.87;;;1.47;;
14276;SDS011;7222;57.346;12.150;2023-07-31T10:57:48;5.37;;;1.53;;
14276;SDS011;7222;57.346;12.150;2023-07-31T11:00:21;1.97;;;1.13;;
14276;SDS011;7222;57.346;12.150;2023-07-31T11:05:49;3.80;;;1.27;;
14276;SDS011;7222;57.346;12.150;2023-07-31T11:08:19;7.90;;;1.80;;
14276;SDS011;7222;57.346;12.150;2023-07-31T11:10:48;3.83;;;1.37;;
14276;SDS011;7222;57.346;12.150;2023-07-31T11:13:16;2.47;;;1.50;;
14276;SDS011;7222;57.346;12.150;2023-07-31T11:15:44;4.80;;;1.27;;
14276;SDS011;7222;57.346;12.150;2023-07-31T11:18:11;1.87;;;1.30;;
14276;SDS011;7222;57.346;12.150;2023-07-31T11:21:00;5.07;;;1.60;;
14276;SDS011;7222;57.346;12.150;2023-07-31T11:23:27;4.20;;;1.37;;
14276;SDS011;7222;57.346;12.150;2023-07-31T11:25:57;6.13;;;1.60;;
14276;SDS011;7222;57.346;12.150;2023-07-31T11:28:30;3.83;;;1.50;;
14276;SDS011;7222;57.346;12.150;2023-07-31T11:30:59;4.30;;;1.47;;
14276;SDS011;7222;57.346;12.150;2023-07-31T11:33:27;3.13;;;1.20;;
14276;SDS011;7222;57.346;12.150;2023-07-31T11:35:54;4.60;;;1.70;;
14276;SDS011;7222;57.346;12.150;2023-07-31T11:38:22;5.90;;;2.00;;
14276;SDS011;7222;57.346;12.150;2023-07-31T11:40:50;4.13;;;1.73;;
14276;SDS011;7222;57.346;12.150;2023-07-31T11:43:18;1.77;;;1.27;;
14276;SDS011;7222;57.346;12.150;2023-07-31T11:45:47;2.33;;;1.10;;
14276;SDS011;7222;57.346;12.150;2023-07-31T11:48:23;3.97;;;1.90;;
14276;SDS011;7222;57.346;12.150;2023-07-31T11:51:04;4.87;;;1.67;;
14276;SDS011;7222;57.346;12.150;2023-07-31T11:53:33;5.93;;;1.93;;
14276;SDS011;7222;57.346;12.150;2023-07-31T11:56:04;4.13;;;1.63;;
14276;SDS011;7222;57.346;12.150;2023-07-31T11:58:32;3.97;;;1.73;;
14276;SDS011;7222;57.346;12.150;2023-07-31T12:01:01;6.17;;;2.13;;
14276;SDS011;7222;57.346;12.150;2023-07-31T12:03:30;9.43;;;2.20;;
14276;SDS011;7222;57.346;12.150;2023-07-31T12:05:58;4.63;;;2.20;;
14276;SDS011;7222;57.346;12.150;2023-07-31T12:08:26;8.30;;;2.87;;
14276;SDS011;7222;57.346;12.150;2023-07-31T12:10:53;6.83;;;2.57;;
14276;SDS011;7222;57.346;12.150;2023-07-31T12:13:21;7.23;;;2.67;;
14276;SDS011;7222;57.346;12.150;2023-07-31T12:15:49;8.60;;;2.80;;
14276;SDS011;7222;57.346;12.150;2023-07-31T12:18:22;7.83;;;2.90;;
14276;SDS011;7222;57.346;12.150;2023-07-31T12:20:55;8.77;;;2.67;;
14276;SDS011;7222;57.346;12.150;2023-07-31T12:23:24;9.50;;;2.70;;
14276;SDS011;7222;57.346;12.150;2023-07-31T12:25:59;7.93;;;2.33;;
14276;SDS011;7222;57.346;12.150;2023-07-31T12:28:26;6.87;;;2.40;;
14276;SDS011;7222;57.346;12.150;2023-07-31T12:30:56;6.00;;;2.23;;
14276;SDS011;7222;57.346;12.150;2023-07-31T12:33:29;6.80;;;2.13;;
14276;SDS011;7222;57.346;12.150;2023-07-31T12:36:00;5.60;;;2.13;;
14276;SDS011;7222;57.346;12.150;2023-07-31T12:38:27;8.17;;;2.27;;
14276;SDS011;7222;57.346;12.150;2023-07-31T12:40:55;5.57;;;2.57;;
14276;SDS011;7222;57.346;12.150;2023-07-31T12:43:22;7.20;;;2.57;;
14276;SDS011;7222;57.346;12.150;2023-07-31T12:45:49;8.83;;;2.80;;
14276;SDS011;7222;57.346;12.150;2023-07-31T12:48:16;7.97;;;2.73;;
14276;SDS011;7222;57.346;12.150;2023-07-31T12:50:43;5.47;;;2.37;;
14276;SDS011;7222;57.346;12.150;2023-07-31T12:53:11;7.67;;;2.57;;
14276;SDS011;7222;57.346;12.150;2023-07-31T12:55:38;4.27;;;2.20;;
14276;SDS011;7222;57.346;12.150;2023-07-31T12:58:05;5.70;;;2.53;;
14276;SDS011;7222;57.346;12.150;2023-07-31T13:00:32;5.93;;;2.27;;
14276;SDS011;7222;57.346;12.150;2023-07-31T13:02:59;4.87;;;2.50;;
14276;SDS011;7222;57.346;12.150;2023-07-31T13:05:27;5.60;;;2.23;;
14276;SDS011;7222;57.346;12.150;2023-07-31T13:07:54;5.83;;;2.20;;
14276;SDS011;7222;57.346;12.150;2023-07-31T13:10:24;3.43;;;2.17;;
14276;SDS011;7222;57.346;12.150;2023-07-31T13:12:51;3.90;;;2.20;;
14276;SDS011;7222;57.346;12.150;2023-07-31T13:15:18;3.17;;;1.60;;
14276;SDS011;7222;57.346;12.150;2023-07-31T13:17:46;3.70;;;1.70;;
14276;SDS011;7222;57.346;12.150;2023-07-31T13:20:13;3.73;;;1.83;;
14276;SDS011;7222;57.346;12.150;2023-07-31T13:22:40;5.73;;;2.07;;
14276;SDS011;7222;57.346;12.150;2023-07-31T13:25:07;3.50;;;1.57;;
14276;SDS011;7222;57.346;12.150;2023-07-31T13:27:36;3.17;;;1.70;;
14276;SDS011;7222;57.346;12.150;2023-07-31T13:30:04;5.50;;;2.03;;
14276;SDS011;7222;57.346;12.150;2023-07-31T13:32:31;4.93;;;2.00;;
14276;SDS011;7222;57.346;12.150;2023-07-31T13:34:58;3.93;;;1.77;;
14276;SDS011;7222;57.346;12.150;2023-07-31T13:37:25;5.73;;;1.70;;
14276;SDS011;7222;57.346;12.150;2023-07-31T13:39:52;4.40;;;1.60;;
14276;SDS011;7222;57.346;12.150;2023-07-31T13:42:19;3.70;;;1.40;;
14276;SDS011;7222;57.346;12.150;2023-07-31T13:44:48;5.03;;;1.70;;
14276;SDS011;7222;57.346;12.150;2023-07-31T13:47:16;1.40;;;1.30;;
14276;SDS011;7222;57.346;12.150;2023-07-31T13:49:43;5.53;;;1.57;;
14276;SDS011;7222;57.346;12.150;2023-07-31T13:52:10;4.37;;;1.60;;
14276;SDS011;7222;57.346;12.150;2023-07-31T13:54:37;4.37;;;1.50;;
14276;SDS011;7222;57.346;12.150;2023-07-31T13:57:04;2.13;;;1.40;;
14276;SDS011;7222;57.346;12.150;2023-07-31T13:59:31;6.77;;;1.63;;
14276;SDS011;7222;57.346;12.150;2023-07-31T14:02:00;5.90;;;1.70;;
14276;SDS011;7222;57.346;12.150;2023-07-31T14:04:28;7.23;;;2.20;;
14276;SDS011;7222;57.346;12.150;2023-07-31T14:06:55;3.87;;;1.67;;
14276;SDS011;7222;57.346;12.150;2023-07-31T14:09:22;3.50;;;1.70;;
14276;SDS011;7222;57.346;12.150;2023-07-31T14:11:50;7.17;;;2.17;;
14276;SDS011;7222;57.346;12.150;2023-07-31T14:14:17;4.63;;;1.57;;
14276;SDS011;7222;57.346;12.150;2023-07-31T14:16:44;7.30;;;1.60;;
14276;SDS011;7222;57.346;12.150;2023-07-31T14:19:13;4.60;;;1.87;;
14276;SDS011;7222;57.346;12.150;2023-07-31T14:21:39;5.67;;;1.40;;
14276;SDS011;7222;57.346;12.150;2023-07-31T14:24:06;5.23;;;1.83;;
14276;SDS011;7222;57.346;12.150;2023-07-31T14:26:33;3.87;;;1.53;;
14276;SDS011;7222;57.346;12.150;2023-07-31T14:29:00;5.97;;;1.80;;
14276;SDS011;7222;57.346;12.150;2023-07-31T14:31:27;3.37;;;1.50;;
14276;SDS011;7222;57.346;12.150;2023-07-31T14:33:54;5.60;;;2.00;;
14276;SDS011;7222;57.346;12.150;2023-07-31T14:36:22;4.20;;;1.50;;
14276;SDS011;7222;57.346;12.150;2023-07-31T14:38:49;5.03;;;1.53;;
14276;SDS011;7222;57.346;12.150;2023-07-31T14:41:16;5.40;;;1.70;;
14276;SDS011;7222;57.346;12.150;2023-07-31T14:43:43;5.63;;;1.73;;
14276;SDS011;7222;57.346;12.150;2023-07-31T14:46:10;3.07;;;1.37;;
14276;SDS011;7222;57.346;12.150;2023-07-31T14:48:37;4.47;;;1.23;;
14276;SDS011;7222;57.346;12.150;2023-07-31T14:51:04;5.03;;;1.37;;
14276;SDS011;7222;57.346;12.150;2023-07-31T14:53:32;3.93;;;1.20;;
14276;SDS011;7222;57.346;12.150;2023-07-31T14:55:59;4.17;;;1.40;;
14276;SDS011;7222;57.346;12.150;2023-07-31T14:58:26;4.33;;;1.50;;
14276;SDS011;7222;57.346;12.150;2023-07-31T15:00:53;2.53;;;1.10;;